首页
METAR-TAF:

METAR-TAF

机场 :

普雷斯科特, 亞利桑那州, 美国

纬度: 34-38-57N, 经度: 112-25-20W, 海拔: 1537米

当前天气观测

该预报发布于1小时和0分钟前的17:53 UTC
风速5节,风向多变
温度 31°C
湿度 24%
气压 1024 hPa
能見度: 16.1公里
天空无云

METAR: KPRC 221753Z AUTO VRB05KT 10SM CLR 31/08 A3025 RMK AO2 SLP145 T03110083 10311 20211 50003 $

时间: 11:53 (18:53 UTC)

预报

该预报发布于1小时和20分钟前的17:33 UTC
预报有效从22日的 18点(UTC)到 23日的 18点(UTC)
风速11节,风向西
能見度: 10公里
多云层高于12000英尺
从 23日的 0300点(UTC)
风速5节,风向
能見度: 10公里
散云层高于12000英尺
多云层高于20000英尺
几率 30%
从 23日的 06点(UTC)到 23日的 12点(UTC)
风速10节,风向多变,有时为20节阵风
能見度: 9.7公里
多云层高于10000英尺, 积雨云.
雷暴, 小雨

TAF: KPRC 221733Z 2218/2318 27011KT P6SM BKN120 FM230300 19005KT P6SM SCT120 BKN200 PROB30 2306/2312 VRB10G20KT 6SM -TSRA BKN100CB

超过4000个机场的气象观测和天气预报(METAR&TAF报告)。

可查询的气象台以黄色和红色小点在地图上表示。

将鼠标移到小点上方,可查看气象台名称。

然后点击查看天气观测和预报。

如需切换地图:点击带黑十字的绿色按钮放大地图;点击带横线的绿色按钮缩小地图;或者点击绿色箭头查看邻近地区的地图。


METAR-TAF: